createdAt,value
2018-09-21T00:00:37.501Z,0.00
2018-09-21T00:01:37.482Z,0.00
2018-09-21T00:02:37.468Z,0.00
2018-09-21T00:03:37.456Z,0.00
2018-09-21T00:04:37.437Z,0.00
2018-09-21T00:05:37.425Z,0.00
2018-09-21T00:06:37.409Z,0.00
2018-09-21T00:07:37.393Z,0.00
2018-09-21T00:08:37.380Z,0.00
2018-09-21T00:09:37.382Z,0.00
2018-09-21T00:10:37.348Z,0.00
2018-09-21T00:11:37.384Z,0.00
2018-09-21T00:12:37.331Z,0.00
2018-09-21T00:13:37.307Z,0.00
2018-09-21T00:14:37.309Z,0.00
2018-09-21T00:15:37.276Z,0.00
2018-09-21T00:16:37.271Z,0.00
2018-09-21T00:17:37.247Z,0.00
2018-09-21T00:18:37.230Z,0.00
2018-09-21T00:19:37.221Z,0.00
2018-09-21T00:20:37.203Z,0.00
2018-09-21T00:21:37.188Z,0.00
2018-09-21T00:22:37.178Z,0.00
2018-09-21T00:23:37.159Z,0.00
2018-09-21T00:24:37.146Z,0.00
2018-09-21T00:25:37.132Z,0.00
2018-09-21T00:26:37.114Z,0.00
2018-09-21T00:27:37.100Z,0.00
2018-09-21T00:28:37.098Z,0.00
2018-09-21T00:29:37.073Z,0.00
2018-09-21T00:30:37.063Z,0.00
2018-09-21T00:31:37.047Z,0.00
2018-09-21T00:32:37.031Z,0.00
2018-09-21T00:33:37.013Z,0.00
2018-09-21T00:34:36.996Z,0.00
2018-09-21T00:35:36.991Z,0.00
2018-09-21T00:36:36.967Z,0.00
2018-09-21T00:37:36.955Z,0.00
2018-09-21T00:38:36.959Z,0.00
2018-09-21T00:39:36.932Z,0.00
2018-09-21T00:40:36.914Z,0.00
2018-09-21T00:41:36.904Z,0.00
2018-09-21T00:42:36.931Z,0.00
2018-09-21T00:43:36.871Z,0.00
2018-09-21T00:44:36.859Z,0.00
2018-09-21T00:45:36.843Z,0.00
2018-09-21T00:46:36.823Z,0.00
2018-09-21T00:47:36.807Z,0.00
2018-09-21T00:48:36.793Z,0.00
2018-09-21T00:49:36.776Z,0.00
2018-09-21T00:50:36.761Z,0.00
2018-09-21T00:51:36.759Z,0.00
2018-09-21T00:52:36.732Z,0.00
2018-09-21T00:53:36.717Z,0.00
2018-09-21T00:54:36.717Z,0.00
2018-09-21T00:55:36.690Z,0.00
2018-09-21T00:56:36.672Z,0.00
2018-09-21T00:57:36.711Z,0.00
2018-09-21T00:58:36.644Z,0.00
2018-09-21T00:59:36.632Z,0.00
2018-09-21T01:00:36.615Z,0.00
2018-09-21T01:01:36.599Z,0.00
2018-09-21T01:02:36.588Z,0.00
2018-09-21T01:03:36.570Z,0.00
2018-09-21T01:04:36.559Z,0.00
2018-09-21T01:05:36.549Z,0.00
2018-09-21T01:06:36.528Z,0.00
2018-09-21T01:07:36.512Z,0.00
2018-09-21T01:08:36.498Z,0.00
2018-09-21T01:09:36.484Z,0.00
2018-09-21T01:10:36.469Z,0.00
2018-09-21T01:11:36.451Z,0.00
2018-09-21T01:12:36.437Z,0.00
2018-09-21T01:13:36.422Z,0.00
2018-09-21T01:14:36.406Z,0.00
2018-09-21T01:15:36.397Z,0.00
2018-09-21T01:16:36.378Z,0.00
2018-09-21T01:17:36.362Z,0.00
2018-09-21T01:18:36.347Z,0.00
2018-09-21T01:19:36.336Z,0.00
2018-09-21T01:20:36.318Z,0.00
2018-09-21T01:21:36.310Z,0.00
2018-09-21T01:22:36.292Z,0.00
2018-09-21T01:23:36.275Z,0.00
2018-09-21T01:24:36.359Z,0.00
2018-09-21T01:25:36.245Z,0.00
2018-09-21T01:26:36.237Z,0.00
2018-09-21T01:27:36.214Z,0.00
2018-09-21T01:28:36.207Z,0.00
2018-09-21T01:29:36.186Z,0.00
2018-09-21T01:30:36.170Z,0.00
2018-09-21T01:31:36.156Z,0.00
2018-09-21T01:32:36.153Z,0.00
2018-09-21T01:33:36.124Z,0.00
2018-09-21T01:34:36.110Z,0.00
2018-09-21T01:35:36.100Z,0.00
2018-09-21T01:36:36.079Z,0.00
2018-09-21T01:37:36.068Z,0.00
2018-09-21T01:38:36.050Z,0.00
2018-09-21T01:39:36.036Z,0.00
2018-09-21T01:40:36.025Z,0.00
2018-09-21T01:41:36.007Z,0.00
2018-09-21T01:42:35.994Z,0.00
2018-09-21T01:43:35.977Z,0.00
2018-09-21T01:44:35.961Z,0.00
2018-09-21T01:45:35.947Z,0.00
2018-09-21T01:46:35.930Z,0.00
2018-09-21T01:47:35.917Z,0.00
2018-09-21T01:48:35.903Z,0.00
2018-09-21T01:49:35.896Z,0.00
2018-09-21T01:50:35.945Z,0.00
2018-09-21T01:51:35.858Z,0.00
2018-09-21T01:52:35.841Z,0.00
2018-09-21T01:53:35.826Z,0.00
2018-09-21T01:54:35.812Z,0.00
2018-09-21T01:55:35.796Z,0.00
2018-09-21T01:56:35.791Z,0.00
2018-09-21T01:57:35.772Z,0.00
2018-09-21T01:58:35.751Z,0.00
2018-09-21T01:59:35.744Z,0.00
2018-09-21T02:00:35.722Z,0.00
2018-09-21T02:01:35.710Z,0.00
2018-09-21T02:02:35.708Z,0.00
2018-09-21T02:03:35.678Z,0.00
2018-09-21T02:04:35.663Z,0.00
2018-09-21T02:05:35.659Z,0.00
2018-09-21T02:06:35.634Z,0.00
2018-09-21T02:07:35.615Z,0.00
2018-09-21T02:08:35.602Z,0.00
2018-09-21T02:09:35.627Z,0.00
2018-09-21T02:10:35.627Z,0.00
2018-09-21T02:11:35.557Z,0.00
2018-09-21T02:12:35.542Z,0.00
2018-09-21T02:13:35.529Z,0.00
2018-09-21T02:14:35.511Z,0.00
2018-09-21T02:15:35.500Z,0.00
2018-09-21T02:16:35.482Z,0.00
2018-09-21T02:17:35.512Z,0.00
2018-09-21T02:18:35.452Z,0.00
2018-09-21T02:19:35.437Z,0.00
2018-09-21T02:20:35.422Z,0.00
2018-09-21T02:21:35.409Z,0.00
2018-09-21T02:22:35.393Z,0.00
2018-09-21T02:23:35.379Z,0.00
2018-09-21T02:24:35.363Z,0.00
2018-09-21T02:25:35.348Z,0.00
2018-09-21T02:26:35.389Z,0.00
2018-09-21T02:27:35.317Z,0.00
2018-09-21T02:28:35.301Z,0.00
2018-09-21T02:29:35.288Z,0.00
2018-09-21T02:30:35.277Z,0.00
2018-09-21T02:31:35.256Z,0.00
2018-09-21T02:32:35.246Z,0.00
2018-09-21T02:33:35.229Z,0.00
2018-09-21T02:34:35.215Z,0.00
2018-09-21T02:35:35.204Z,0.00
2018-09-21T02:36:35.184Z,0.00
2018-09-21T02:37:35.170Z,0.00
2018-09-21T02:38:35.150Z,0.00
2018-09-21T02:39:35.140Z,0.00
2018-09-21T02:40:35.125Z,0.00
2018-09-21T02:41:35.117Z,0.00
2018-09-21T02:42:35.090Z,0.00
2018-09-21T02:43:35.079Z,0.00
2018-09-21T02:44:35.063Z,0.00
2018-09-21T02:45:35.086Z,0.00
2018-09-21T02:46:35.031Z,0.00
2018-09-21T02:47:35.016Z,0.00
2018-09-21T02:48:35.002Z,0.00
2018-09-21T02:49:34.990Z,0.00
2018-09-21T02:50:34.980Z,0.00
2018-09-21T02:51:34.958Z,0.00
2018-09-21T02:52:34.939Z,0.00
2018-09-21T02:53:34.925Z,0.00
2018-09-21T02:54:34.908Z,0.00
2018-09-21T02:55:34.895Z,0.00
2018-09-21T02:56:34.880Z,0.00
2018-09-21T02:57:34.866Z,0.00
2018-09-21T02:58:34.850Z,0.00
2018-09-21T02:59:34.834Z,0.00
2018-09-21T03:00:34.902Z,0.00
2018-09-21T03:01:34.805Z,0.00
2018-09-21T03:02:34.799Z,0.00
2018-09-21T03:03:34.773Z,0.00
2018-09-21T03:04:34.759Z,0.00
2018-09-21T03:05:34.746Z,0.00
2018-09-21T03:06:34.728Z,0.00
2018-09-21T03:07:34.716Z,0.00
2018-09-21T03:08:34.699Z,0.00
2018-09-21T03:09:34.684Z,0.00
2018-09-21T03:10:34.668Z,0.00
2018-09-21T03:11:34.652Z,0.00
2018-09-21T03:12:34.636Z,0.00
2018-09-21T03:13:34.627Z,0.00
2018-09-21T03:14:34.607Z,0.00
2018-09-21T03:15:34.691Z,0.00
2018-09-21T03:16:34.576Z,0.00
2018-09-21T03:17:34.566Z,0.00
2018-09-21T03:18:34.545Z,0.00
2018-09-21T03:19:34.530Z,0.00
2018-09-21T03:20:34.515Z,0.00
2018-09-21T03:21:34.505Z,0.00
2018-09-21T03:22:34.485Z,0.00
2018-09-21T03:23:34.470Z,0.00
2018-09-21T03:24:34.457Z,0.00
2018-09-21T03:25:34.440Z,0.00
2018-09-21T03:26:34.422Z,0.00
2018-09-21T03:27:34.409Z,0.00
2018-09-21T03:28:34.545Z,0.00
2018-09-21T03:29:34.382Z,0.00
2018-09-21T03:30:34.363Z,0.00
2018-09-21T03:31:34.360Z,0.00
2018-09-21T03:32:34.333Z,0.00
2018-09-21T03:33:34.319Z,0.00
2018-09-21T03:34:34.302Z,0.00
2018-09-21T03:35:34.298Z,0.00
2018-09-21T03:36:34.273Z,0.00
2018-09-21T03:37:34.271Z,0.00
2018-09-21T03:38:34.243Z,0.00
2018-09-21T03:39:34.228Z,0.00
2018-09-21T03:40:34.211Z,0.00
2018-09-21T03:41:34.198Z,0.00
2018-09-21T03:42:34.183Z,0.00
2018-09-21T03:43:34.165Z,0.00
2018-09-21T03:44:34.153Z,0.00
2018-09-21T03:45:34.137Z,0.00
2018-09-21T03:46:34.124Z,0.00
2018-09-21T03:47:34.106Z,0.00
2018-09-21T03:48:34.091Z,0.00
2018-09-21T03:49:34.074Z,0.00
2018-09-21T03:50:34.070Z,0.00
2018-09-21T03:51:34.045Z,0.00
2018-09-21T03:52:34.030Z,0.00
2018-09-21T03:53:34.016Z,0.00
2018-09-21T03:54:33.997Z,0.00
2018-09-21T03:55:33.983Z,0.00
2018-09-21T03:56:33.974Z,0.00
2018-09-21T03:57:33.958Z,0.00
2018-09-21T03:58:33.937Z,0.00
2018-09-21T03:59:33.923Z,0.00
2018-09-21T04:00:33.908Z,0.00
2018-09-21T04:01:33.897Z,0.00
2018-09-21T04:02:33.878Z,0.00
2018-09-21T04:03:33.871Z,0.00
2018-09-21T04:04:33.846Z,0.00
2018-09-21T04:05:33.833Z,0.00
2018-09-21T04:06:33.817Z,0.00
2018-09-21T04:07:33.801Z,0.00
2018-09-21T04:08:33.828Z,0.00
2018-09-21T04:09:33.771Z,0.00
2018-09-21T04:10:33.756Z,0.00
2018-09-21T04:11:33.750Z,0.00
2018-09-21T04:12:33.730Z,0.00
2018-09-21T04:13:33.711Z,0.00
2018-09-21T04:14:33.779Z,0.00
2018-09-21T04:15:33.690Z,0.00
2018-09-21T04:16:33.665Z,0.00
2018-09-21T04:17:33.651Z,0.00
2018-09-21T04:18:33.635Z,0.00
2018-09-21T04:19:33.620Z,0.00
2018-09-21T04:20:33.605Z,0.00
2018-09-21T04:21:33.593Z,0.00
2018-09-21T04:22:33.574Z,0.00
2018-09-21T04:23:33.560Z,0.00
2018-09-21T04:24:33.554Z,0.00
2018-09-21T04:25:33.529Z,0.00
2018-09-21T04:26:33.515Z,0.00
2018-09-21T04:27:33.499Z,0.00
2018-09-21T04:28:33.484Z,0.00
2018-09-21T04:29:33.468Z,0.00
2018-09-21T04:30:33.455Z,0.00
2018-09-21T04:31:33.439Z,0.00
2018-09-21T04:32:33.429Z,0.00
2018-09-21T04:33:33.411Z,0.00
2018-09-21T04:34:33.393Z,0.00
2018-09-21T04:35:33.379Z,0.00
2018-09-21T04:36:33.364Z,0.00
2018-09-21T04:37:33.349Z,0.00
2018-09-21T04:38:33.337Z,0.00
2018-09-21T04:39:33.319Z,0.00
2018-09-21T04:40:33.308Z,0.00
2018-09-21T04:41:33.395Z,0.00
2018-09-21T04:42:33.272Z,0.00
2018-09-21T04:43:33.258Z,0.00
2018-09-21T04:44:33.247Z,0.00
2018-09-21T04:45:33.228Z,0.00
2018-09-21T04:46:33.229Z,0.00
2018-09-21T04:47:33.197Z,0.00
2018-09-21T04:48:33.191Z,0.00
2018-09-21T04:49:33.169Z,0.00
2018-09-21T04:50:33.156Z,0.00
2018-09-21T04:51:33.141Z,0.00
2018-09-21T04:52:33.138Z,0.00
2018-09-21T04:53:33.110Z,0.00
2018-09-21T04:54:33.100Z,0.00
2018-09-21T04:55:33.085Z,0.00
2018-09-21T04:56:33.067Z,0.00
2018-09-21T04:57:33.051Z,0.00
2018-09-21T04:58:33.032Z,0.00
2018-09-21T04:59:33.025Z,0.00
2018-09-21T05:00:33.004Z,0.00
2018-09-21T05:01:32.990Z,0.00
2018-09-21T05:02:32.981Z,0.00
2018-09-21T05:03:32.969Z,0.00
2018-09-21T05:04:32.944Z,0.00
2018-09-21T05:05:32.934Z,0.00
2018-09-21T05:06:32.918Z,0.00
2018-09-21T05:07:32.898Z,0.00
2018-09-21T05:08:32.885Z,0.00
2018-09-21T05:09:32.871Z,0.00
2018-09-21T05:10:32.856Z,0.00
2018-09-21T05:11:32.840Z,0.00
2018-09-21T05:12:32.826Z,5.63
2018-09-21T05:13:32.835Z,5.63
2018-09-21T05:14:32.798Z,5.63
2018-09-21T05:15:32.789Z,5.63
2018-09-21T05:16:32.876Z,5.63
2018-09-21T05:17:32.756Z,5.63
2018-09-21T05:18:32.737Z,5.63
2018-09-21T05:19:32.739Z,5.63
2018-09-21T05:20:32.716Z,5.63
2018-09-21T05:21:32.697Z,5.63
2018-09-21T05:22:32.677Z,11.25
2018-09-21T05:23:32.665Z,11.25
2018-09-21T05:24:32.755Z,11.25
2018-09-21T05:25:32.633Z,11.25
2018-09-21T05:26:32.630Z,16.88
2018-09-21T05:27:32.759Z,16.88
2018-09-21T05:28:32.590Z,16.88
2018-09-21T05:29:32.576Z,22.50
2018-09-21T05:30:32.559Z,22.50
2018-09-21T05:31:32.553Z,22.50
2018-09-21T05:32:32.529Z,22.50
2018-09-21T05:33:32.515Z,28.13
2018-09-21T05:34:32.588Z,28.13
2018-09-21T05:35:32.485Z,28.13
2018-09-21T05:36:32.470Z,33.75
2018-09-21T05:37:32.464Z,33.75
2018-09-21T05:38:32.443Z,33.75
2018-09-21T05:39:32.426Z,33.75
2018-09-21T05:40:32.537Z,33.75
2018-09-21T05:41:32.406Z,28.13
2018-09-21T05:42:32.384Z,28.13
2018-09-21T05:43:32.425Z,28.13
2018-09-21T05:44:32.355Z,22.50
2018-09-21T05:45:32.344Z,22.50
2018-09-21T05:46:32.322Z,22.50
2018-09-21T05:47:32.309Z,28.13
2018-09-21T05:48:32.294Z,28.13
2018-09-21T05:49:32.283Z,28.13
2018-09-21T05:50:32.266Z,33.75
2018-09-21T05:51:32.249Z,39.38
2018-09-21T05:52:32.238Z,45.00
2018-09-21T05:53:32.223Z,50.63
2018-09-21T05:54:32.206Z,56.25
2018-09-21T05:55:32.191Z,61.88
2018-09-21T05:56:32.182Z,67.50
2018-09-21T05:57:32.164Z,67.50
2018-09-21T05:58:32.158Z,61.88
2018-09-21T05:59:32.137Z,56.25
2018-09-21T06:00:32.119Z,56.25
2018-09-21T06:01:32.106Z,50.63
2018-09-21T06:02:32.176Z,45.00
2018-09-21T06:03:32.082Z,50.63
2018-09-21T06:04:32.072Z,50.63
2018-09-21T06:05:32.053Z,56.25
2018-09-21T06:06:32.036Z,56.25
2018-09-21T06:07:32.021Z,56.25
2018-09-21T06:08:32.008Z,56.25
2018-09-21T06:09:31.991Z,50.63
2018-09-21T06:10:31.975Z,50.63
2018-09-21T06:11:31.965Z,50.63
2018-09-21T06:12:31.953Z,56.25
2018-09-21T06:13:32.040Z,56.25
2018-09-21T06:14:31.918Z,61.88
2018-09-21T06:15:31.911Z,73.13
2018-09-21T06:16:31.888Z,78.75
2018-09-21T06:17:31.874Z,84.38
2018-09-21T06:18:31.860Z,84.38
2018-09-21T06:19:31.884Z,90.00
2018-09-21T06:20:31.839Z,95.63
2018-09-21T06:21:31.817Z,106.88
2018-09-21T06:22:31.810Z,118.13
2018-09-21T06:23:31.793Z,129.38
2018-09-21T06:24:31.775Z,140.63
2018-09-21T06:25:31.769Z,146.25
2018-09-21T06:26:31.749Z,146.25
2018-09-21T06:27:31.749Z,151.88
2018-09-21T06:28:31.716Z,157.50
2018-09-21T06:29:31.706Z,163.13
2018-09-21T06:30:31.702Z,168.75
2018-09-21T06:31:31.688Z,180.00
2018-09-21T06:32:31.660Z,196.88
2018-09-21T06:33:31.646Z,208.13
2018-09-21T06:34:31.636Z,219.38
2018-09-21T06:35:31.630Z,225.00
2018-09-21T06:36:31.610Z,225.00
2018-09-21T06:37:31.591Z,225.00
2018-09-21T06:38:31.579Z,219.38
2018-09-21T06:39:31.566Z,213.75
2018-09-21T06:40:31.549Z,202.50
2018-09-21T06:41:31.533Z,196.88
2018-09-21T06:42:31.521Z,191.25
2018-09-21T06:43:31.505Z,185.63
2018-09-21T06:44:31.494Z,180.00
2018-09-21T06:45:31.485Z,191.25
2018-09-21T06:46:31.463Z,196.88
2018-09-21T06:47:31.459Z,202.50
2018-09-21T06:48:31.550Z,196.88
2018-09-21T06:49:31.422Z,202.50
2018-09-21T06:50:31.418Z,196.88
2018-09-21T06:51:31.395Z,196.88
2018-09-21T06:52:31.383Z,191.25
2018-09-21T06:53:31.367Z,185.63
2018-09-21T06:54:31.358Z,185.63
2018-09-21T06:55:31.351Z,196.88
2018-09-21T06:56:31.326Z,208.13
2018-09-21T06:57:31.316Z,219.38
2018-09-21T06:58:31.300Z,213.75
2018-09-21T06:59:31.294Z,213.75
2018-09-21T07:00:31.271Z,196.88
2018-09-21T07:01:31.276Z,191.25
2018-09-21T07:02:31.243Z,180.00
2018-09-21T07:03:31.232Z,168.75
2018-09-21T07:04:31.218Z,168.75
2018-09-21T07:05:31.219Z,168.75
2018-09-21T07:07:15.221Z,180.00
2018-09-21T07:08:15.228Z,191.25
2018-09-21T07:09:15.186Z,196.88
2018-09-21T07:10:15.180Z,202.50
2018-09-21T07:11:15.165Z,208.13
2018-09-21T07:12:15.153Z,219.38
2018-09-21T07:13:15.136Z,202.50
2018-09-21T07:14:15.116Z,185.63
2018-09-21T07:15:15.115Z,168.75
2018-09-21T07:16:15.101Z,146.25
2018-09-21T07:17:15.087Z,135.00
2018-09-21T07:18:15.062Z,123.75
2018-09-21T07:19:15.062Z,106.88
2018-09-21T07:20:15.045Z,101.25
2018-09-21T07:21:15.022Z,90.00
2018-09-21T07:22:15.013Z,90.00
2018-09-21T07:23:14.994Z,90.00
2018-09-21T07:24:14.989Z,95.63
2018-09-21T07:25:14.969Z,106.88
2018-09-21T07:26:14.958Z,106.88
2018-09-21T07:27:14.941Z,106.88
2018-09-21T07:28:14.929Z,106.88
2018-09-21T07:29:14.918Z,112.50
2018-09-21T07:30:14.916Z,118.13
2018-09-21T07:31:14.900Z,129.38
2018-09-21T07:32:14.925Z,140.63
2018-09-21T07:33:14.866Z,151.88
2018-09-21T07:34:14.848Z,163.13
2018-09-21T07:35:14.863Z,163.13
2018-09-21T07:36:14.828Z,163.13
2018-09-21T07:37:14.812Z,163.13
2018-09-21T07:38:14.800Z,168.75
2018-09-21T07:39:14.785Z,185.63
2018-09-21T07:40:14.766Z,208.13
2018-09-21T07:41:14.759Z,225.00
2018-09-21T07:42:14.739Z,241.88
2018-09-21T07:43:14.734Z,258.75
2018-09-21T07:44:14.720Z,286.88
2018-09-21T07:45:14.698Z,320.63
2018-09-21T07:46:14.685Z,337.50
2018-09-21T07:47:14.673Z,337.50
2018-09-21T07:48:14.658Z,309.38
2018-09-21T07:49:14.645Z,258.75
2018-09-21T07:50:14.631Z,213.75
2018-09-21T07:51:14.625Z,208.13
2018-09-21T07:52:14.606Z,185.63
2018-09-21T07:53:14.607Z,163.13
2018-09-21T07:54:14.582Z,185.63
2018-09-21T07:55:14.564Z,219.38
2018-09-21T07:56:14.552Z,225.00
2018-09-21T07:57:14.547Z,213.75
2018-09-21T07:58:14.532Z,225.00
2018-09-21T07:59:14.510Z,208.13
2018-09-21T08:00:14.502Z,196.88
2018-09-21T08:01:14.498Z,191.25
2018-09-21T08:02:14.472Z,174.38
2018-09-21T08:03:14.458Z,168.75
2018-09-21T08:04:14.457Z,168.75
2018-09-21T08:05:14.571Z,168.75
2018-09-21T08:06:14.421Z,163.13
2018-09-21T08:07:14.430Z,168.75
2018-09-21T08:08:14.392Z,174.38
2018-09-21T08:09:14.400Z,180.00
2018-09-21T08:10:14.364Z,174.38
2018-09-21T08:11:14.351Z,168.75
2018-09-21T08:12:14.337Z,168.75
2018-09-21T08:13:14.325Z,168.75
2018-09-21T08:14:14.338Z,180.00
2018-09-21T08:15:14.529Z,202.50
2018-09-21T08:16:14.294Z,230.63
2018-09-21T08:17:14.272Z,258.75
2018-09-21T08:18:14.258Z,292.50
2018-09-21T08:19:14.252Z,331.88
2018-09-21T08:20:14.234Z,354.38
2018-09-21T08:21:14.217Z,382.50
2018-09-21T08:22:14.204Z,405.00
2018-09-21T08:23:14.201Z,433.13
2018-09-21T08:24:14.178Z,472.50
2018-09-21T08:25:14.177Z,523.13
2018-09-21T08:26:14.150Z,573.75
2018-09-21T08:27:14.139Z,562.50
2018-09-21T08:28:14.130Z,495.00
2018-09-21T08:29:14.113Z,461.25
2018-09-21T08:30:14.099Z,483.75
2018-09-21T08:31:14.105Z,421.88
2018-09-21T08:32:14.073Z,376.88
2018-09-21T08:33:14.121Z,410.63
2018-09-21T08:34:14.078Z,421.88
2018-09-21T08:35:14.034Z,405.00
2018-09-21T08:36:14.021Z,405.00
2018-09-21T08:37:14.088Z,360.00
2018-09-21T08:38:14.005Z,337.50
2018-09-21T08:39:13.983Z,360.00
2018-09-21T08:40:13.973Z,343.13
2018-09-21T08:41:13.956Z,298.13
2018-09-21T08:42:13.941Z,337.50
2018-09-21T08:43:13.950Z,320.63
2018-09-21T08:44:13.918Z,348.75
2018-09-21T08:45:13.907Z,331.88
2018-09-21T08:46:13.903Z,315.00
2018-09-21T08:47:13.880Z,320.63
2018-09-21T08:48:13.945Z,303.75
2018-09-21T08:49:13.870Z,275.63
2018-09-21T08:50:13.848Z,213.75
2018-09-21T08:51:13.829Z,157.50
2018-09-21T08:52:13.817Z,146.25
2018-09-21T08:53:13.809Z,146.25
2018-09-21T08:54:13.793Z,146.25
2018-09-21T08:55:13.786Z,118.13
2018-09-21T08:56:13.765Z,90.00
2018-09-21T08:57:13.750Z,90.00
2018-09-21T08:58:13.749Z,129.38
2018-09-21T08:59:13.743Z,140.63
2018-09-21T09:00:13.731Z,151.88
2018-09-21T09:01:13.709Z,163.13
2018-09-21T09:02:13.687Z,123.75
2018-09-21T09:03:13.833Z,90.00
2018-09-21T09:04:13.762Z,73.13
2018-09-21T09:05:13.649Z,50.63
2018-09-21T09:06:13.636Z,39.38
2018-09-21T09:07:13.622Z,45.00
2018-09-21T09:08:13.610Z,39.38
2018-09-21T09:09:13.607Z,33.75
2018-09-21T09:10:13.600Z,56.25
2018-09-21T09:11:13.570Z,73.13
2018-09-21T09:12:13.556Z,56.25
2018-09-21T09:13:13.556Z,33.75
2018-09-21T09:14:13.530Z,33.75
2018-09-21T09:15:13.520Z,67.50
2018-09-21T09:16:13.508Z,56.25
2018-09-21T09:17:13.502Z,28.13
2018-09-21T09:18:13.485Z,33.75
2018-09-21T09:19:13.462Z,50.63
2018-09-21T09:20:13.552Z,67.50
2018-09-21T09:21:13.446Z,84.38
2018-09-21T09:22:13.432Z,140.63
2018-09-21T09:23:13.485Z,180.00
2018-09-21T09:24:13.405Z,174.38
2018-09-21T09:25:13.378Z,140.63
2018-09-21T09:26:13.363Z,84.38
2018-09-21T09:27:13.346Z,61.88
2018-09-21T09:28:13.334Z,73.13
2018-09-21T09:29:13.319Z,95.63
2018-09-21T09:30:13.316Z,90.00
2018-09-21T09:31:13.291Z,90.00
2018-09-21T09:32:13.278Z,95.63
2018-09-21T09:33:13.260Z,101.25
2018-09-21T09:34:13.244Z,118.13
2018-09-21T09:35:13.248Z,129.38
2018-09-21T09:36:13.225Z,151.88
2018-09-21T09:37:13.204Z,185.63
2018-09-21T09:38:13.186Z,174.38
2018-09-21T09:39:13.174Z,163.13
2018-09-21T09:40:13.157Z,163.13
2018-09-21T09:41:13.145Z,191.25
2018-09-21T09:42:13.126Z,213.75
2018-09-21T09:43:13.184Z,225.00
2018-09-21T09:44:13.097Z,230.63
2018-09-21T09:45:13.090Z,286.88
2018-09-21T09:46:13.073Z,337.50
2018-09-21T09:47:13.063Z,354.38
2018-09-21T09:48:13.049Z,320.63
2018-09-21T09:49:13.129Z,286.88
2018-09-21T09:50:13.022Z,275.63
2018-09-21T09:51:12.990Z,258.75
2018-09-21T09:52:12.986Z,236.25
2018-09-21T09:53:12.963Z,225.00
2018-09-21T09:54:12.956Z,208.13
2018-09-21T09:55:12.932Z,236.25
2018-09-21T09:56:12.917Z,196.88
2018-09-21T09:57:12.901Z,191.25
2018-09-21T09:58:12.886Z,191.25
2018-09-21T09:59:12.873Z,185.63
2018-09-21T10:00:12.855Z,196.88
2018-09-21T10:01:12.842Z,219.38
2018-09-21T10:02:12.826Z,236.25
2018-09-21T10:03:12.812Z,253.13
2018-09-21T10:04:12.795Z,275.63
2018-09-21T10:05:12.779Z,275.63
2018-09-21T10:06:12.772Z,270.00
2018-09-21T10:07:12.752Z,247.50
2018-09-21T10:08:12.771Z,225.00
2018-09-21T10:09:12.782Z,185.63
2018-09-21T10:10:12.746Z,191.25
2018-09-21T10:11:12.691Z,213.75
2018-09-21T10:12:12.677Z,213.75
2018-09-21T10:13:12.673Z,202.50
2018-09-21T10:14:12.644Z,185.63
2018-09-21T10:15:12.631Z,191.25
2018-09-21T10:16:12.626Z,236.25
2018-09-21T10:17:12.701Z,247.50
2018-09-21T10:18:12.600Z,241.88
2018-09-21T10:19:12.576Z,253.13
2018-09-21T10:20:12.570Z,253.13
2018-09-21T10:21:12.541Z,253.13
2018-09-21T10:22:12.532Z,270.00
2018-09-21T10:23:12.527Z,281.25
2018-09-21T10:24:12.545Z,292.50
2018-09-21T10:25:12.487Z,320.63
2018-09-21T10:26:12.464Z,315.00
2018-09-21T10:27:12.517Z,315.00
2018-09-21T10:28:12.538Z,303.75
2018-09-21T10:29:12.435Z,281.25
2018-09-21T10:30:12.406Z,270.00
2018-09-21T10:31:12.405Z,253.13
2018-09-21T10:32:12.377Z,270.00
2018-09-21T10:33:12.396Z,264.38
2018-09-21T10:34:12.346Z,264.38
2018-09-21T10:35:12.330Z,247.50
2018-09-21T10:36:12.420Z,236.25
2018-09-21T10:37:12.343Z,247.50
2018-09-21T10:38:12.294Z,236.25
2018-09-21T10:39:12.366Z,225.00
2018-09-21T10:40:12.320Z,247.50
2018-09-21T10:41:12.253Z,315.00
2018-09-21T10:42:12.256Z,371.25
2018-09-21T10:43:12.262Z,382.50
2018-09-21T10:44:12.203Z,371.25
2018-09-21T10:45:12.188Z,376.88
2018-09-21T10:46:12.168Z,438.75
2018-09-21T10:47:12.152Z,455.63
2018-09-21T10:48:12.137Z,393.75
2018-09-21T10:49:12.141Z,320.63
2018-09-21T10:50:12.107Z,348.75
2018-09-21T10:51:12.099Z,421.88
2018-09-21T10:52:12.079Z,399.38
2018-09-21T10:53:12.061Z,405.00
2018-09-21T10:54:12.047Z,343.13
2018-09-21T10:55:12.034Z,309.38
2018-09-21T10:56:12.018Z,326.25
2018-09-21T10:57:12.002Z,354.38
2018-09-21T10:58:11.990Z,348.75
2018-09-21T10:59:11.976Z,331.88
2018-09-21T11:00:11.957Z,303.75
2018-09-21T11:01:11.943Z,258.75
2018-09-21T11:02:11.936Z,247.50
2018-09-21T11:03:11.930Z,241.88
2018-09-21T11:04:11.899Z,258.75
2018-09-21T11:05:11.886Z,303.75
2018-09-21T11:06:11.869Z,433.13
2018-09-21T11:07:11.876Z,663.75
2018-09-21T11:08:11.841Z,680.63
2018-09-21T11:09:11.827Z,742.50
2018-09-21T11:10:11.821Z,663.75
2018-09-21T11:11:11.793Z,506.25
2018-09-21T11:12:11.780Z,376.88
2018-09-21T11:13:11.843Z,309.38
2018-09-21T11:14:11.761Z,303.75
2018-09-21T11:15:11.746Z,320.63
2018-09-21T11:16:11.737Z,320.63
2018-09-21T11:17:11.706Z,326.25
2018-09-21T11:18:11.700Z,416.25
2018-09-21T11:19:11.729Z,573.75
2018-09-21T11:20:11.663Z,613.13
2018-09-21T11:21:11.654Z,601.88
2018-09-21T11:22:11.635Z,579.38
2018-09-21T11:23:11.628Z,551.25
2018-09-21T11:24:11.636Z,528.75
2018-09-21T11:25:11.595Z,489.38
2018-09-21T11:26:11.577Z,495.00
2018-09-21T11:27:11.565Z,500.63
2018-09-21T11:28:11.551Z,495.00
2018-09-21T11:29:11.535Z,489.38
2018-09-21T11:30:11.535Z,483.75
2018-09-21T11:31:11.505Z,461.25
2018-09-21T11:32:11.500Z,376.88
2018-09-21T11:33:11.560Z,309.38
2018-09-21T11:34:11.466Z,303.75
2018-09-21T11:35:11.452Z,337.50
2018-09-21T11:36:11.433Z,393.75
2018-09-21T11:37:11.420Z,590.63
2018-09-21T11:38:11.403Z,579.38
2018-09-21T11:39:11.397Z,720.00
2018-09-21T11:40:11.394Z,663.75
2018-09-21T11:41:11.373Z,641.25
2018-09-21T11:42:11.352Z,630.00
2018-09-21T11:43:11.333Z,787.50
2018-09-21T11:44:11.332Z,675.00
2018-09-21T11:45:11.308Z,624.38
2018-09-21T11:46:11.313Z,562.50
2018-09-21T11:47:11.402Z,540.00
2018-09-21T11:48:11.269Z,596.25
2018-09-21T11:49:11.258Z,601.88
2018-09-21T11:50:11.242Z,607.50
2018-09-21T11:51:11.224Z,635.63
2018-09-21T11:52:11.212Z,573.75
2018-09-21T11:53:11.194Z,500.63
2018-09-21T11:54:11.177Z,270.00
2018-09-21T11:55:11.165Z,208.13
2018-09-21T11:56:11.151Z,405.00
2018-09-21T11:57:11.139Z,551.25
2018-09-21T11:58:11.123Z,382.50
2018-09-21T11:59:11.236Z,348.75
2018-09-21T12:00:11.106Z,320.63
2018-09-21T12:01:11.083Z,343.13
2018-09-21T12:02:11.072Z,348.75
2018-09-21T12:03:11.053Z,315.00
2018-09-21T12:04:11.053Z,258.75
2018-09-21T12:05:11.031Z,213.75
2018-09-21T12:06:11.015Z,191.25
2018-09-21T12:07:10.997Z,180.00
2018-09-21T12:08:10.986Z,123.75
2018-09-21T12:09:10.975Z,90.00
2018-09-21T12:10:10.959Z,73.13
2018-09-21T12:11:10.942Z,84.38
2018-09-21T12:12:10.926Z,112.50
2018-09-21T12:13:10.922Z,129.38
2018-09-21T12:14:10.898Z,129.38
2018-09-21T12:15:10.882Z,135.00
2018-09-21T12:16:10.971Z,225.00
2018-09-21T12:17:10.946Z,270.00
2018-09-21T12:18:10.841Z,343.13
2018-09-21T12:19:10.824Z,393.75
2018-09-21T12:20:10.813Z,382.50
2018-09-21T12:21:10.806Z,416.25
2018-09-21T12:22:10.803Z,466.88
2018-09-21T12:23:10.774Z,528.75
2018-09-21T12:24:10.752Z,500.63
2018-09-21T12:25:10.739Z,523.13
2018-09-21T12:26:10.725Z,556.88
2018-09-21T12:27:10.820Z,568.13
2018-09-21T12:28:10.695Z,545.63
2018-09-21T12:29:10.694Z,523.13
2018-09-21T12:30:10.687Z,495.00
2018-09-21T12:31:10.651Z,455.63
2018-09-21T12:32:10.645Z,455.63
2018-09-21T12:33:10.628Z,455.63
2018-09-21T12:34:10.606Z,466.88
2018-09-21T12:35:10.593Z,472.50
2018-09-21T12:36:10.659Z,478.13
2018-09-21T12:37:10.666Z,495.00
2018-09-21T12:38:10.566Z,489.38
2018-09-21T12:39:10.548Z,478.13
2018-09-21T12:40:10.535Z,461.25
2018-09-21T12:41:10.518Z,455.63
2018-09-21T12:42:10.494Z,438.75
2018-09-21T12:43:10.477Z,433.13
2018-09-21T12:44:10.465Z,433.13
2018-09-21T12:45:10.450Z,450.00
2018-09-21T12:46:10.451Z,450.00
2018-09-21T12:47:10.427Z,450.00
2018-09-21T12:48:10.464Z,438.75
2018-09-21T12:49:10.392Z,433.13
2018-09-21T12:50:10.407Z,427.50
2018-09-21T12:51:10.370Z,433.13
2018-09-21T12:52:10.347Z,433.13